sensor_id;sensor_type;location;lat;lon;timestamp;P1;durP1;ratioP1;P2;durP2;ratioP2
26750;SDS011;14345;48.272;25.926;2022-12-24T00:01:42;109.85;;;62.42;;
26750;SDS011;14345;48.272;25.926;2022-12-24T00:04:09;108.13;;;61.00;;
26750;SDS011;14345;48.272;25.926;2022-12-24T00:06:35;108.00;;;60.55;;
26750;SDS011;14345;48.272;25.926;2022-12-24T00:09:01;111.43;;;62.45;;
26750;SDS011;14345;48.272;25.926;2022-12-24T00:11:27;113.95;;;63.30;;
26750;SDS011;14345;48.272;25.926;2022-12-24T00:13:53;107.05;;;61.85;;
26750;SDS011;14345;48.272;25.926;2022-12-24T00:16:19;119.13;;;64.45;;
26750;SDS011;14345;48.272;25.926;2022-12-24T00:18:45;111.32;;;61.38;;
26750;SDS011;14345;48.272;25.926;2022-12-24T00:21:12;111.45;;;62.60;;
26750;SDS011;14345;48.272;25.926;2022-12-24T00:23:38;110.93;;;62.20;;
26750;SDS011;14345;48.272;25.926;2022-12-24T00:26:04;108.95;;;61.90;;
26750;SDS011;14345;48.272;25.926;2022-12-24T00:28:30;105.35;;;61.42;;
26750;SDS011;14345;48.272;25.926;2022-12-24T00:30:56;113.78;;;63.10;;
26750;SDS011;14345;48.272;25.926;2022-12-24T00:33:22;108.68;;;59.92;;
26750;SDS011;14345;48.272;25.926;2022-12-24T00:35:49;99.15;;;57.53;;
26750;SDS011;14345;48.272;25.926;2022-12-24T00:38:15;101.57;;;58.03;;
26750;SDS011;14345;48.272;25.926;2022-12-24T00:40:41;99.15;;;56.15;;
26750;SDS011;14345;48.272;25.926;2022-12-24T00:43:07;95.22;;;56.60;;
26750;SDS011;14345;48.272;25.926;2022-12-24T00:45:33;100.90;;;56.47;;
26750;SDS011;14345;48.272;25.926;2022-12-24T04:18:35;68.55;;;42.00;;
26750;SDS011;14345;48.272;25.926;2022-12-24T04:21:02;77.78;;;44.03;;
26750;SDS011;14345;48.272;25.926;2022-12-24T04:23:31;78.45;;;43.45;;
26750;SDS011;14345;48.272;25.926;2022-12-24T04:25:58;102.43;;;57.20;;
26750;SDS011;14345;48.272;25.926;2022-12-24T04:28:24;93.10;;;52.25;;
26750;SDS011;14345;48.272;25.926;2022-12-24T04:30:50;93.70;;;54.13;;
26750;SDS011;14345;48.272;25.926;2022-12-24T04:33:16;97.35;;;55.03;;
26750;SDS011;14345;48.272;25.926;2022-12-24T04:35:42;92.45;;;54.22;;
26750;SDS011;14345;48.272;25.926;2022-12-24T04:38:08;100.57;;;59.70;;
26750;SDS011;14345;48.272;25.926;2022-12-24T04:40:35;108.25;;;60.75;;
26750;SDS011;14345;48.272;25.926;2022-12-24T04:43:01;105.93;;;60.58;;
26750;SDS011;14345;48.272;25.926;2022-12-24T04:45:27;101.90;;;58.35;;
26750;SDS011;14345;48.272;25.926;2022-12-24T04:47:53;109.20;;;64.38;;
26750;SDS011;14345;48.272;25.926;2022-12-24T04:50:19;119.38;;;68.40;;
26750;SDS011;14345;48.272;25.926;2022-12-24T04:52:45;113.10;;;65.22;;
26750;SDS011;14345;48.272;25.926;2022-12-24T04:55:11;120.47;;;71.13;;
26750;SDS011;14345;48.272;25.926;2022-12-24T04:57:37;115.70;;;65.25;;
26750;SDS011;14345;48.272;25.926;2022-12-24T05:00:03;110.13;;;62.17;;
26750;SDS011;14345;48.272;25.926;2022-12-24T05:02:30;97.72;;;58.33;;
26750;SDS011;14345;48.272;25.926;2022-12-24T05:04:56;97.60;;;56.65;;
26750;SDS011;14345;48.272;25.926;2022-12-24T05:07:22;96.70;;;53.28;;
26750;SDS011;14345;48.272;25.926;2022-12-24T05:09:48;90.10;;;52.13;;
26750;SDS011;14345;48.272;25.926;2022-12-24T05:12:14;80.93;;;46.88;;
26750;SDS011;14345;48.272;25.926;2022-12-24T05:14:40;71.03;;;43.67;;
26750;SDS011;14345;48.272;25.926;2022-12-24T05:17:06;72.05;;;43.40;;
26750;SDS011;14345;48.272;25.926;2022-12-24T05:19:33;80.25;;;49.13;;
26750;SDS011;14345;48.272;25.926;2022-12-24T05:21:59;92.03;;;55.78;;
26750;SDS011;14345;48.272;25.926;2022-12-24T05:24:44;79.63;;;45.20;;
26750;SDS011;14345;48.272;25.926;2022-12-24T05:27:28;72.45;;;42.05;;
26750;SDS011;14345;48.272;25.926;2022-12-24T05:29:55;64.10;;;40.20;;
26750;SDS011;14345;48.272;25.926;2022-12-24T05:32:21;68.07;;;39.67;;
26750;SDS011;14345;48.272;25.926;2022-12-24T05:34:46;57.53;;;34.75;;
26750;SDS011;14345;48.272;25.926;2022-12-24T05:37:13;63.47;;;37.58;;
26750;SDS011;14345;48.272;25.926;2022-12-24T05:39:39;71.43;;;42.65;;
26750;SDS011;14345;48.272;25.926;2022-12-24T05:42:05;60.88;;;37.95;;
26750;SDS011;14345;48.272;25.926;2022-12-24T05:44:31;65.68;;;38.65;;
26750;SDS011;14345;48.272;25.926;2022-12-24T05:46:57;67.53;;;40.90;;
26750;SDS011;14345;48.272;25.926;2022-12-24T05:49:23;62.58;;;37.38;;
26750;SDS011;14345;48.272;25.926;2022-12-24T05:51:49;74.78;;;42.95;;
26750;SDS011;14345;48.272;25.926;2022-12-24T05:54:15;67.82;;;40.35;;
26750;SDS011;14345;48.272;25.926;2022-12-24T05:56:41;70.47;;;42.20;;
26750;SDS011;14345;48.272;25.926;2022-12-24T05:59:07;84.93;;;50.72;;
26750;SDS011;14345;48.272;25.926;2022-12-24T06:01:33;74.03;;;43.50;;
26750;SDS011;14345;48.272;25.926;2022-12-24T06:03:59;76.00;;;45.97;;
26750;SDS011;14345;48.272;25.926;2022-12-24T06:06:26;76.88;;;46.65;;
26750;SDS011;14345;48.272;25.926;2022-12-24T06:08:53;91.05;;;52.17;;
26750;SDS011;14345;48.272;25.926;2022-12-24T06:11:23;98.80;;;55.72;;
26750;SDS011;14345;48.272;25.926;2022-12-24T06:13:51;82.20;;;49.20;;
26750;SDS011;14345;48.272;25.926;2022-12-24T06:16:18;85.97;;;49.40;;
26750;SDS011;14345;48.272;25.926;2022-12-24T06:18:44;81.72;;;49.35;;
26750;SDS011;14345;48.272;25.926;2022-12-24T06:21:11;78.18;;;47.20;;
26750;SDS011;14345;48.272;25.926;2022-12-24T06:23:38;74.50;;;44.88;;
26750;SDS011;14345;48.272;25.926;2022-12-24T06:26:04;73.35;;;45.65;;
26750;SDS011;14345;48.272;25.926;2022-12-24T06:28:31;72.78;;;44.55;;
26750;SDS011;14345;48.272;25.926;2022-12-24T06:30:58;72.68;;;43.30;;
26750;SDS011;14345;48.272;25.926;2022-12-24T06:33:25;76.00;;;47.78;;
26750;SDS011;14345;48.272;25.926;2022-12-24T06:35:51;74.18;;;44.60;;
26750;SDS011;14345;48.272;25.926;2022-12-24T06:38:17;73.20;;;45.85;;
26750;SDS011;14345;48.272;25.926;2022-12-24T06:40:44;74.32;;;44.53;;
26750;SDS011;14345;48.272;25.926;2022-12-24T06:43:11;57.67;;;35.75;;
26750;SDS011;14345;48.272;25.926;2022-12-24T06:45:37;58.45;;;35.67;;
26750;SDS011;14345;48.272;25.926;2022-12-24T06:48:03;69.68;;;42.42;;
26750;SDS011;14345;48.272;25.926;2022-12-24T06:50:31;67.25;;;43.42;;
26750;SDS011;14345;48.272;25.926;2022-12-24T06:52:57;75.40;;;47.00;;
26750;SDS011;14345;48.272;25.926;2022-12-24T06:55:23;72.10;;;45.00;;
26750;SDS011;14345;48.272;25.926;2022-12-24T11:09:12;97.45;;;58.95;;
26750;SDS011;14345;48.272;25.926;2022-12-24T11:11:43;90.47;;;55.00;;
26750;SDS011;14345;48.272;25.926;2022-12-24T11:14:11;97.60;;;57.72;;
26750;SDS011;14345;48.272;25.926;2022-12-24T11:16:39;90.72;;;55.20;;
26750;SDS011;14345;48.272;25.926;2022-12-24T11:19:06;93.28;;;54.67;;
26750;SDS011;14345;48.272;25.926;2022-12-24T11:21:40;92.68;;;55.50;;
26750;SDS011;14345;48.272;25.926;2022-12-24T11:24:07;91.60;;;54.42;;
26750;SDS011;14345;48.272;25.926;2022-12-24T11:26:39;86.63;;;52.80;;
26750;SDS011;14345;48.272;25.926;2022-12-24T11:29:18;85.63;;;51.50;;
26750;SDS011;14345;48.272;25.926;2022-12-24T11:31:45;84.97;;;52.85;;
26750;SDS011;14345;48.272;25.926;2022-12-24T11:36:43;83.53;;;52.33;;
26750;SDS011;14345;48.272;25.926;2022-12-24T11:39:16;90.47;;;54.75;;
26750;SDS011;14345;48.272;25.926;2022-12-24T11:41:43;88.22;;;57.00;;
26750;SDS011;14345;48.272;25.926;2022-12-24T11:44:09;91.15;;;55.90;;
26750;SDS011;14345;48.272;25.926;2022-12-24T11:46:40;92.38;;;54.53;;
26750;SDS011;14345;48.272;25.926;2022-12-24T11:51:38;101.68;;;61.10;;
26750;SDS011;14345;48.272;25.926;2022-12-24T11:56:50;86.13;;;51.85;;
26750;SDS011;14345;48.272;25.926;2022-12-24T12:02:09;90.68;;;53.17;;
26750;SDS011;14345;48.272;25.926;2022-12-24T12:04:29;88.95;;;52.15;;
26750;SDS011;14345;48.272;25.926;2022-12-24T12:07:08;89.85;;;54.40;;
26750;SDS011;14345;48.272;25.926;2022-12-24T12:09:37;97.18;;;56.20;;
26750;SDS011;14345;48.272;25.926;2022-12-24T12:12:05;94.75;;;57.15;;
26750;SDS011;14345;48.272;25.926;2022-12-24T12:14:35;89.75;;;55.03;;
26750;SDS011;14345;48.272;25.926;2022-12-24T12:19:30;101.05;;;59.40;;
26750;SDS011;14345;48.272;25.926;2022-12-24T12:21:57;93.60;;;56.85;;
26750;SDS011;14345;48.272;25.926;2022-12-24T12:24:25;93.35;;;56.70;;
26750;SDS011;14345;48.272;25.926;2022-12-24T12:26:55;94.50;;;56.22;;
26750;SDS011;14345;48.272;25.926;2022-12-24T12:29:27;85.35;;;53.05;;
26750;SDS011;14345;48.272;25.926;2022-12-24T12:32:09;90.38;;;54.50;;
26750;SDS011;14345;48.272;25.926;2022-12-24T12:34:41;83.63;;;51.13;;
26750;SDS011;14345;48.272;25.926;2022-12-24T12:37:10;90.32;;;54.63;;
26750;SDS011;14345;48.272;25.926;2022-12-24T12:39:38;87.18;;;54.45;;
26750;SDS011;14345;48.272;25.926;2022-12-24T12:55:21;93.95;;;57.53;;
26750;SDS011;14345;48.272;25.926;2022-12-24T12:57:49;91.35;;;58.03;;
26750;SDS011;14345;48.272;25.926;2022-12-24T13:00:17;97.70;;;56.92;;
26750;SDS011;14345;48.272;25.926;2022-12-24T13:12:50;88.55;;;54.92;;
26750;SDS011;14345;48.272;25.926;2022-12-24T13:17:51;87.18;;;54.30;;
26750;SDS011;14345;48.272;25.926;2022-12-24T13:20:28;84.80;;;52.60;;
26750;SDS011;14345;48.272;25.926;2022-12-24T13:22:57;90.40;;;54.80;;
26750;SDS011;14345;48.272;25.926;2022-12-24T13:25:33;95.63;;;57.72;;
26750;SDS011;14345;48.272;25.926;2022-12-24T13:30:45;111.03;;;64.90;;
26750;SDS011;14345;48.272;25.926;2022-12-24T13:33:11;94.03;;;56.88;;
26750;SDS011;14345;48.272;25.926;2022-12-24T13:35:55;85.13;;;53.65;;
26750;SDS011;14345;48.272;25.926;2022-12-24T13:40:51;85.35;;;53.25;;
26750;SDS011;14345;48.272;25.926;2022-12-24T13:43:17;86.70;;;53.40;;
26750;SDS011;14345;48.272;25.926;2022-12-24T13:45:45;79.68;;;48.97;;
26750;SDS011;14345;48.272;25.926;2022-12-24T13:48:15;75.70;;;47.10;;
26750;SDS011;14345;48.272;25.926;2022-12-24T13:50:53;77.30;;;47.72;;
26750;SDS011;14345;48.272;25.926;2022-12-24T13:53:26;79.03;;;48.75;;
26750;SDS011;14345;48.272;25.926;2022-12-24T13:55:56;92.57;;;53.80;;
26750;SDS011;14345;48.272;25.926;2022-12-24T13:58:23;93.55;;;58.30;;
26750;SDS011;14345;48.272;25.926;2022-12-24T14:03:43;103.15;;;64.05;;
26750;SDS011;14345;48.272;25.926;2022-12-24T14:06:11;101.72;;;62.08;;
26750;SDS011;14345;48.272;25.926;2022-12-24T14:08:45;100.00;;;63.05;;
26750;SDS011;14345;48.272;25.926;2022-12-24T14:16:09;101.63;;;61.38;;
26750;SDS011;14345;48.272;25.926;2022-12-24T14:18:37;87.68;;;56.70;;
26750;SDS011;14345;48.272;25.926;2022-12-24T14:21:05;107.63;;;66.28;;
26750;SDS011;14345;48.272;25.926;2022-12-24T14:23:35;124.35;;;74.85;;
26750;SDS011;14345;48.272;25.926;2022-12-24T14:26:03;102.80;;;63.65;;
26750;SDS011;14345;48.272;25.926;2022-12-24T14:28:35;105.95;;;64.82;;
26750;SDS011;14345;48.272;25.926;2022-12-24T14:31:04;112.72;;;68.80;;
26750;SDS011;14345;48.272;25.926;2022-12-24T14:33:31;142.90;;;86.05;;
26750;SDS011;14345;48.272;25.926;2022-12-24T14:35:57;136.55;;;82.18;;
26750;SDS011;14345;48.272;25.926;2022-12-24T14:38:24;139.32;;;85.18;;
26750;SDS011;14345;48.272;25.926;2022-12-24T14:40:56;134.70;;;81.95;;
26750;SDS011;14345;48.272;25.926;2022-12-24T14:48:44;135.93;;;82.43;;
26750;SDS011;14345;48.272;25.926;2022-12-24T14:56:14;129.13;;;78.35;;
26750;SDS011;14345;48.272;25.926;2022-12-24T14:58:41;128.85;;;76.60;;
26750;SDS011;14345;48.272;25.926;2022-12-24T15:03:42;143.65;;;86.35;;
26750;SDS011;14345;48.272;25.926;2022-12-24T15:06:08;145.77;;;91.40;;
26750;SDS011;14345;48.272;25.926;2022-12-24T15:08:36;135.57;;;83.72;;
26750;SDS011;14345;48.272;25.926;2022-12-24T15:11:04;135.80;;;86.63;;
26750;SDS011;14345;48.272;25.926;2022-12-24T15:13:35;137.85;;;87.82;;
26750;SDS011;14345;48.272;25.926;2022-12-24T15:16:03;134.50;;;85.25;;
26750;SDS011;14345;48.272;25.926;2022-12-24T15:18:31;142.30;;;87.63;;
26750;SDS011;14345;48.272;25.926;2022-12-24T15:20:59;136.15;;;84.85;;
26750;SDS011;14345;48.272;25.926;2022-12-24T15:23:27;133.15;;;86.03;;
26750;SDS011;14345;48.272;25.926;2022-12-24T15:28:39;132.10;;;82.65;;
26750;SDS011;14345;48.272;25.926;2022-12-24T15:31:15;136.00;;;84.25;;
26750;SDS011;14345;48.272;25.926;2022-12-24T15:33:49;138.80;;;88.35;;
26750;SDS011;14345;48.272;25.926;2022-12-24T15:36:17;155.90;;;96.35;;
26750;SDS011;14345;48.272;25.926;2022-12-24T15:38:49;141.75;;;87.15;;
26750;SDS011;14345;48.272;25.926;2022-12-24T15:41:35;134.27;;;82.15;;
26750;SDS011;14345;48.272;25.926;2022-12-24T15:44:02;125.85;;;78.05;;
26750;SDS011;14345;48.272;25.926;2022-12-24T15:46:29;125.63;;;79.05;;
26750;SDS011;14345;48.272;25.926;2022-12-24T15:48:56;124.22;;;76.00;;
26750;SDS011;14345;48.272;25.926;2022-12-24T15:51:33;124.55;;;78.95;;
26750;SDS011;14345;48.272;25.926;2022-12-24T15:54:00;128.18;;;78.63;;
26750;SDS011;14345;48.272;25.926;2022-12-24T15:56:37;131.90;;;80.72;;
26750;SDS011;14345;48.272;25.926;2022-12-24T16:01:45;122.88;;;76.10;;
26750;SDS011;14345;48.272;25.926;2022-12-24T16:04:13;117.13;;;74.65;;
26750;SDS011;14345;48.272;25.926;2022-12-24T16:11:56;113.82;;;70.80;;
26750;SDS011;14345;48.272;25.926;2022-12-24T16:14:22;114.07;;;71.82;;
26750;SDS011;14345;48.272;25.926;2022-12-24T16:16:49;121.47;;;74.88;;
26750;SDS011;14345;48.272;25.926;2022-12-24T16:19:21;119.32;;;72.63;;
26750;SDS011;14345;48.272;25.926;2022-12-24T16:21:55;111.25;;;68.95;;
26750;SDS011;14345;48.272;25.926;2022-12-24T16:24:23;109.43;;;68.40;;
26750;SDS011;14345;48.272;25.926;2022-12-24T16:26:49;106.75;;;67.85;;
26750;SDS011;14345;48.272;25.926;2022-12-24T16:29:16;113.45;;;70.30;;
26750;SDS011;14345;48.272;25.926;2022-12-24T16:31:53;125.80;;;76.25;;
26750;SDS011;14345;48.272;25.926;2022-12-24T16:34:20;122.32;;;77.47;;
26750;SDS011;14345;48.272;25.926;2022-12-24T16:36:48;130.65;;;83.63;;
26750;SDS011;14345;48.272;25.926;2022-12-24T16:39:34;143.23;;;87.28;;
26750;SDS011;14345;48.272;25.926;2022-12-24T16:42:00;140.73;;;89.47;;
26750;SDS011;14345;48.272;25.926;2022-12-24T16:44:45;138.55;;;90.95;;
26750;SDS011;14345;48.272;25.926;2022-12-24T16:47:16;147.45;;;92.65;;
26750;SDS011;14345;48.272;25.926;2022-12-24T16:49:43;140.57;;;87.30;;
26750;SDS011;14345;48.272;25.926;2022-12-24T16:52:16;137.45;;;87.10;;
26750;SDS011;14345;48.272;25.926;2022-12-24T16:54:42;133.43;;;86.55;;
26750;SDS011;14345;48.272;25.926;2022-12-24T16:57:09;135.02;;;82.03;;
26750;SDS011;14345;48.272;25.926;2022-12-24T16:59:35;134.55;;;83.93;;
26750;SDS011;14345;48.272;25.926;2022-12-24T17:02:02;129.32;;;82.75;;
26750;SDS011;14345;48.272;25.926;2022-12-24T17:04:30;127.13;;;81.00;;
26750;SDS011;14345;48.272;25.926;2022-12-24T17:06:56;117.78;;;79.68;;
26750;SDS011;14345;48.272;25.926;2022-12-24T17:09:22;129.57;;;80.05;;
26750;SDS011;14345;48.272;25.926;2022-12-24T17:11:48;124.97;;;78.60;;
26750;SDS011;14345;48.272;25.926;2022-12-24T17:14:14;118.95;;;75.35;;
26750;SDS011;14345;48.272;25.926;2022-12-24T17:16:40;116.63;;;74.75;;
26750;SDS011;14345;48.272;25.926;2022-12-24T17:19:06;121.93;;;76.32;;
26750;SDS011;14345;48.272;25.926;2022-12-24T17:21:32;115.57;;;74.50;;
26750;SDS011;14345;48.272;25.926;2022-12-24T17:23:58;130.13;;;80.22;;
26750;SDS011;14345;48.272;25.926;2022-12-24T17:26:25;123.22;;;79.53;;
26750;SDS011;14345;48.272;25.926;2022-12-24T17:28:57;140.27;;;90.13;;
26750;SDS011;14345;48.272;25.926;2022-12-24T17:31:23;146.43;;;93.68;;
26750;SDS011;14345;48.272;25.926;2022-12-24T17:33:50;139.20;;;88.30;;
26750;SDS011;14345;48.272;25.926;2022-12-24T17:36:16;130.65;;;84.88;;
26750;SDS011;14345;48.272;25.926;2022-12-24T17:38:42;130.27;;;81.88;;
26750;SDS011;14345;48.272;25.926;2022-12-24T17:41:12;125.75;;;80.10;;
26750;SDS011;14345;48.272;25.926;2022-12-24T17:43:38;120.35;;;78.15;;
26750;SDS011;14345;48.272;25.926;2022-12-24T17:46:05;152.13;;;94.53;;
26750;SDS011;14345;48.272;25.926;2022-12-24T17:48:31;139.32;;;90.68;;
26750;SDS011;14345;48.272;25.926;2022-12-24T17:51:01;132.07;;;81.20;;
26750;SDS011;14345;48.272;25.926;2022-12-24T17:53:28;125.88;;;80.45;;
26750;SDS011;14345;48.272;25.926;2022-12-24T17:55:54;114.75;;;74.03;;
26750;SDS011;14345;48.272;25.926;2022-12-24T17:58:20;107.25;;;69.07;;
26750;SDS011;14345;48.272;25.926;2022-12-24T18:00:46;117.50;;;75.95;;
26750;SDS011;14345;48.272;25.926;2022-12-24T18:03:13;122.32;;;79.22;;
26750;SDS011;14345;48.272;25.926;2022-12-24T18:05:39;127.50;;;82.68;;
26750;SDS011;14345;48.272;25.926;2022-12-24T18:08:05;130.38;;;84.63;;
26750;SDS011;14345;48.272;25.926;2022-12-24T18:10:32;118.60;;;76.25;;
26750;SDS011;14345;48.272;25.926;2022-12-24T18:12:58;113.25;;;74.40;;
26750;SDS011;14345;48.272;25.926;2022-12-24T18:15:24;121.60;;;77.38;;
26750;SDS011;14345;48.272;25.926;2022-12-24T18:17:51;127.55;;;82.93;;
26750;SDS011;14345;48.272;25.926;2022-12-24T18:20:18;124.10;;;79.53;;
26750;SDS011;14345;48.272;25.926;2022-12-24T18:22:44;125.22;;;80.63;;
26750;SDS011;14345;48.272;25.926;2022-12-24T18:25:10;123.65;;;81.57;;
26750;SDS011;14345;48.272;25.926;2022-12-24T18:27:37;124.00;;;79.50;;
26750;SDS011;14345;48.272;25.926;2022-12-24T18:30:04;126.97;;;79.35;;
26750;SDS011;14345;48.272;25.926;2022-12-24T18:32:30;119.82;;;76.55;;
26750;SDS011;14345;48.272;25.926;2022-12-24T18:34:56;118.13;;;75.97;;
26750;SDS011;14345;48.272;25.926;2022-12-24T18:37:23;120.53;;;76.57;;
26750;SDS011;14345;48.272;25.926;2022-12-24T18:39:49;104.57;;;66.28;;
26750;SDS011;14345;48.272;25.926;2022-12-24T18:42:15;101.72;;;66.43;;
26750;SDS011;14345;48.272;25.926;2022-12-24T18:44:42;101.47;;;65.28;;
26750;SDS011;14345;48.272;25.926;2022-12-24T18:47:09;103.85;;;67.30;;
26750;SDS011;14345;48.272;25.926;2022-12-24T18:49:35;98.32;;;61.58;;
26750;SDS011;14345;48.272;25.926;2022-12-24T18:52:02;70.38;;;46.35;;
26750;SDS011;14345;48.272;25.926;2022-12-24T18:54:28;82.30;;;52.53;;
26750;SDS011;14345;48.272;25.926;2022-12-24T18:56:55;86.65;;;55.78;;
26750;SDS011;14345;48.272;25.926;2022-12-24T18:59:21;91.53;;;56.72;;
26750;SDS011;14345;48.272;25.926;2022-12-24T19:01:47;100.38;;;63.03;;
26750;SDS011;14345;48.272;25.926;2022-12-24T19:04:14;94.30;;;60.47;;
26750;SDS011;14345;48.272;25.926;2022-12-24T19:06:41;103.45;;;65.28;;
26750;SDS011;14345;48.272;25.926;2022-12-24T19:09:08;102.32;;;68.10;;
26750;SDS011;14345;48.272;25.926;2022-12-24T19:11:36;114.57;;;73.10;;
26750;SDS011;14345;48.272;25.926;2022-12-24T19:14:03;111.57;;;72.70;;
26750;SDS011;14345;48.272;25.926;2022-12-24T19:16:32;122.28;;;77.80;;
26750;SDS011;14345;48.272;25.926;2022-12-24T19:18:59;121.10;;;76.85;;
26750;SDS011;14345;48.272;25.926;2022-12-24T19:21:25;119.32;;;75.40;;
26750;SDS011;14345;48.272;25.926;2022-12-24T19:23:51;100.60;;;64.30;;
26750;SDS011;14345;48.272;25.926;2022-12-24T19:26:21;95.53;;;61.45;;
26750;SDS011;14345;48.272;25.926;2022-12-24T19:28:48;89.43;;;56.80;;
26750;SDS011;14345;48.272;25.926;2022-12-24T19:31:16;116.03;;;75.50;;
26750;SDS011;14345;48.272;25.926;2022-12-24T19:33:43;120.18;;;77.90;;
26750;SDS011;14345;48.272;25.926;2022-12-24T19:36:12;112.43;;;72.38;;
26750;SDS011;14345;48.272;25.926;2022-12-24T19:38:40;124.65;;;77.05;;
26750;SDS011;14345;48.272;25.926;2022-12-24T19:41:10;129.07;;;87.05;;
26750;SDS011;14345;48.272;25.926;2022-12-24T19:43:37;128.80;;;84.65;;
26750;SDS011;14345;48.272;25.926;2022-12-24T19:46:05;150.73;;;94.22;;
26750;SDS011;14345;48.272;25.926;2022-12-24T19:48:32;177.48;;;110.32;;
26750;SDS011;14345;48.272;25.926;2022-12-24T19:51:00;192.43;;;116.82;;
26750;SDS011;14345;48.272;25.926;2022-12-24T19:53:26;175.48;;;106.97;;
26750;SDS011;14345;48.272;25.926;2022-12-24T19:55:52;173.02;;;110.70;;
26750;SDS011;14345;48.272;25.926;2022-12-24T19:58:18;171.52;;;109.22;;
26750;SDS011;14345;48.272;25.926;2022-12-24T20:00:44;198.95;;;125.25;;
26750;SDS011;14345;48.272;25.926;2022-12-24T20:03:11;178.38;;;109.07;;
26750;SDS011;14345;48.272;25.926;2022-12-24T20:05:41;171.10;;;107.25;;
26750;SDS011;14345;48.272;25.926;2022-12-24T20:08:07;159.13;;;101.82;;
26750;SDS011;14345;48.272;25.926;2022-12-24T21:27:33;14.70;;;10.27;;
26750;SDS011;14345;48.272;25.926;2022-12-24T21:29:59;14.80;;;10.40;;
26750;SDS011;14345;48.272;25.926;2022-12-24T21:32:25;14.35;;;10.57;;
26750;SDS011;14345;48.272;25.926;2022-12-24T21:34:51;16.08;;;11.40;;
26750;SDS011;14345;48.272;25.926;2022-12-24T21:37:17;17.45;;;11.10;;
26750;SDS011;14345;48.272;25.926;2022-12-24T21:39:43;15.30;;;11.27;;
26750;SDS011;14345;48.272;25.926;2022-12-24T21:42:09;14.88;;;10.18;;
26750;SDS011;14345;48.272;25.926;2022-12-24T21:44:36;14.50;;;10.45;;
26750;SDS011;14345;48.272;25.926;2022-12-24T21:47:02;15.90;;;11.05;;
26750;SDS011;14345;48.272;25.926;2022-12-24T21:49:28;12.52;;;9.45;;
26750;SDS011;14345;48.272;25.926;2022-12-24T21:52:13;14.20;;;10.38;;
26750;SDS011;14345;48.272;25.926;2022-12-24T21:54:39;13.85;;;10.20;;
26750;SDS011;14345;48.272;25.926;2022-12-24T21:57:06;14.60;;;10.15;;
26750;SDS011;14345;48.272;25.926;2022-12-24T21:59:52;15.15;;;10.35;;
26750;SDS011;14345;48.272;25.926;2022-12-24T22:02:18;11.55;;;9.23;;
26750;SDS011;14345;48.272;25.926;2022-12-24T22:04:46;11.23;;;8.80;;
26750;SDS011;14345;48.272;25.926;2022-12-24T22:07:19;11.32;;;8.90;;
26750;SDS011;14345;48.272;25.926;2022-12-24T22:10:04;11.02;;;8.98;;
26750;SDS011;14345;48.272;25.926;2022-12-24T22:12:49;11.65;;;8.32;;
26750;SDS011;14345;48.272;25.926;2022-12-24T22:15:15;12.45;;;8.85;;
26750;SDS011;14345;48.272;25.926;2022-12-24T22:17:41;13.95;;;9.40;;
26750;SDS011;14345;48.272;25.926;2022-12-24T22:20:07;13.57;;;9.50;;
26750;SDS011;14345;48.272;25.926;2022-12-24T22:22:33;13.00;;;9.57;;
26750;SDS011;14345;48.272;25.926;2022-12-24T22:24:59;12.90;;;9.13;;
26750;SDS011;14345;48.272;25.926;2022-12-24T22:27:25;13.90;;;9.35;;
26750;SDS011;14345;48.272;25.926;2022-12-24T22:29:52;13.52;;;9.35;;
26750;SDS011;14345;48.272;25.926;2022-12-24T22:32:18;14.27;;;10.23;;
26750;SDS011;14345;48.272;25.926;2022-12-24T22:34:44;15.70;;;10.43;;
26750;SDS011;14345;48.272;25.926;2022-12-24T22:37:10;15.07;;;10.18;;
26750;SDS011;14345;48.272;25.926;2022-12-24T22:39:37;16.05;;;11.25;;
26750;SDS011;14345;48.272;25.926;2022-12-24T22:42:03;15.40;;;10.40;;
26750;SDS011;14345;48.272;25.926;2022-12-24T22:44:29;13.68;;;10.38;;
26750;SDS011;14345;48.272;25.926;2022-12-24T22:46:55;15.50;;;10.85;;
26750;SDS011;14345;48.272;25.926;2022-12-24T22:49:21;13.65;;;9.65;;
26750;SDS011;14345;48.272;25.926;2022-12-24T22:51:47;13.02;;;9.20;;
26750;SDS011;14345;48.272;25.926;2022-12-24T22:54:13;12.68;;;9.35;;
26750;SDS011;14345;48.272;25.926;2022-12-24T22:56:39;14.38;;;9.73;;
26750;SDS011;14345;48.272;25.926;2022-12-24T22:59:05;13.25;;;10.02;;
26750;SDS011;14345;48.272;25.926;2022-12-24T23:01:35;15.40;;;9.32;;
26750;SDS011;14345;48.272;25.926;2022-12-24T23:04:02;12.82;;;8.43;;
26750;SDS011;14345;48.272;25.926;2022-12-24T23:06:29;10.23;;;8.05;;
26750;SDS011;14345;48.272;25.926;2022-12-24T23:08:55;11.18;;;8.45;;
26750;SDS011;14345;48.272;25.926;2022-12-24T23:11:22;11.48;;;8.10;;
26750;SDS011;14345;48.272;25.926;2022-12-24T23:13:48;9.45;;;6.95;;
26750;SDS011;14345;48.272;25.926;2022-12-24T23:16:33;11.68;;;8.27;;
26750;SDS011;14345;48.272;25.926;2022-12-24T23:18:59;11.52;;;8.10;;
26750;SDS011;14345;48.272;25.926;2022-12-24T23:21:26;11.77;;;8.20;;
26750;SDS011;14345;48.272;25.926;2022-12-24T23:23:52;8.82;;;7.10;;
26750;SDS011;14345;48.272;25.926;2022-12-24T23:26:19;8.90;;;6.90;;
26750;SDS011;14345;48.272;25.926;2022-12-24T23:28:45;11.35;;;8.35;;
26750;SDS011;14345;48.272;25.926;2022-12-24T23:31:12;12.13;;;7.95;;
26750;SDS011;14345;48.272;25.926;2022-12-24T23:33:39;9.15;;;6.90;;
26750;SDS011;14345;48.272;25.926;2022-12-24T23:36:05;11.60;;;7.45;;
26750;SDS011;14345;48.272;25.926;2022-12-24T23:38:31;9.95;;;7.00;;
26750;SDS011;14345;48.272;25.926;2022-12-24T23:40:58;10.23;;;7.05;;
26750;SDS011;14345;48.272;25.926;2022-12-24T23:43:24;11.55;;;7.60;;
26750;SDS011;14345;48.272;25.926;2022-12-24T23:45:51;9.82;;;7.40;;
26750;SDS011;14345;48.272;25.926;2022-12-24T23:48:17;13.68;;;8.45;;
26750;SDS011;14345;48.272;25.926;2022-12-24T23:50:43;12.35;;;8.80;;
26750;SDS011;14345;48.272;25.926;2022-12-24T23:53:10;10.43;;;8.43;;
26750;SDS011;14345;48.272;25.926;2022-12-24T23:55:36;11.70;;;8.27;;
26750;SDS011;14345;48.272;25.926;2022-12-24T23:58:03;9.85;;;7.72;;
